sensor_id;sensor_type;location;lat;lon;timestamp;pressure;altitude;pressure_sealevel;temperature;humidity
22753;BME280;11543;43.144;24.684;2022-08-19T00:01:33;98359.09;;;26.58;42.71
22753;BME280;11543;43.144;24.684;2022-08-19T00:04:02;98359.06;;;26.48;43.12
22753;BME280;11543;43.144;24.684;2022-08-19T00:06:28;98358.41;;;26.31;43.85
22753;BME280;11543;43.144;24.684;2022-08-19T00:08:55;98357.25;;;26.17;43.79
22753;BME280;11543;43.144;24.684;2022-08-19T00:11:22;98342.50;;;25.86;44.37
22753;BME280;11543;43.144;24.684;2022-08-19T00:13:47;98351.44;;;25.66;45.18
22753;BME280;11543;43.144;24.684;2022-08-19T00:16:16;98324.94;;;25.50;45.46
22753;BME280;11543;43.144;24.684;2022-08-19T00:18:43;98356.94;;;25.66;45.21
22753;BME280;11543;43.144;24.684;2022-08-19T00:21:08;98343.97;;;25.61;44.79
22753;BME280;11543;43.144;24.684;2022-08-19T00:23:35;98358.06;;;25.70;45.09
22753;BME280;11543;43.144;24.684;2022-08-19T00:26:05;98364.16;;;25.77;44.76
22753;BME280;11543;43.144;24.684;2022-08-19T00:28:32;98354.22;;;25.71;44.76
22753;BME280;11543;43.144;24.684;2022-08-19T00:30:58;98355.88;;;25.72;44.73
22753;BME280;11543;43.144;24.684;2022-08-19T00:33:24;98335.16;;;25.59;44.94
22753;BME280;11543;43.144;24.684;2022-08-19T00:35:49;98340.34;;;25.56;45.36
22753;BME280;11543;43.144;24.684;2022-08-19T00:38:14;98360.91;;;25.48;45.69
22753;BME280;11543;43.144;24.684;2022-08-19T00:40:42;98333.91;;;25.08;46.26
22753;BME280;11543;43.144;24.684;2022-08-19T00:43:12;98335.47;;;24.99;46.70
22753;BME280;11543;43.144;24.684;2022-08-19T00:45:39;98341.59;;;25.06;46.85
22753;BME280;11543;43.144;24.684;2022-08-19T00:48:07;98353.16;;;25.13;46.88
22753;BME280;11543;43.144;24.684;2022-08-19T00:50:33;98350.06;;;25.04;47.45
22753;BME280;11543;43.144;24.684;2022-08-19T00:53:00;98351.44;;;25.02;47.25
22753;BME280;11543;43.144;24.684;2022-08-19T00:55:30;98354.22;;;25.07;47.03
22753;BME280;11543;43.144;24.684;2022-08-19T00:58:07;98357.44;;;24.99;47.53
22753;BME280;11543;43.144;24.684;2022-08-19T01:00:34;98345.28;;;24.95;47.24
22753;BME280;11543;43.144;24.684;2022-08-19T01:03:06;98360.00;;;25.11;47.36
22753;BME280;11543;43.144;24.684;2022-08-19T01:05:32;98370.81;;;25.17;47.12
22753;BME280;11543;43.144;24.684;2022-08-19T01:08:01;98366.44;;;25.21;46.89
22753;BME280;11543;43.144;24.684;2022-08-19T01:10:30;98353.81;;;25.20;46.54
22753;BME280;11543;43.144;24.684;2022-08-19T01:12:58;98368.16;;;25.27;46.55
22753;BME280;11543;43.144;24.684;2022-08-19T01:15:33;98374.22;;;25.29;46.73
22753;BME280;11543;43.144;24.684;2022-08-19T01:18:01;98348.22;;;25.10;46.45
22753;BME280;11543;43.144;24.684;2022-08-19T01:20:29;98353.69;;;25.10;46.97
22753;BME280;11543;43.144;24.684;2022-08-19T01:22:57;98356.53;;;25.15;46.79
22753;BME280;11543;43.144;24.684;2022-08-19T01:25:34;98373.06;;;25.25;46.34
22753;BME280;11543;43.144;24.684;2022-08-19T01:28:01;98378.09;;;25.33;46.28
22753;BME280;11543;43.144;24.684;2022-08-19T01:30:30;98372.84;;;25.32;46.60
22753;BME280;11543;43.144;24.684;2022-08-19T01:32:57;98369.25;;;25.26;46.47
22753;BME280;11543;43.144;24.684;2022-08-19T01:35:24;98375.09;;;25.35;46.63
22753;BME280;11543;43.144;24.684;2022-08-19T01:40:20;98370.34;;;25.25;46.73
22753;BME280;11543;43.144;24.684;2022-08-19T01:42:48;98355.34;;;25.11;46.95
22753;BME280;11543;43.144;24.684;2022-08-19T01:45:14;98367.38;;;25.05;47.09
22753;BME280;11543;43.144;24.684;2022-08-19T01:47:40;98393.16;;;25.04;47.29
22753;BME280;11543;43.144;24.684;2022-08-19T01:50:08;98382.63;;;24.96;47.18
22753;BME280;11543;43.144;24.684;2022-08-19T01:52:39;98387.03;;;24.97;47.84
22753;BME280;11543;43.144;24.684;2022-08-19T01:55:07;98381.44;;;24.87;47.72
22753;BME280;11543;43.144;24.684;2022-08-19T01:57:33;98379.25;;;24.89;47.40
22753;BME280;11543;43.144;24.684;2022-08-19T01:59:59;98388.63;;;24.93;47.65
22753;BME280;11543;43.144;24.684;2022-08-19T02:02:25;98368.22;;;24.84;47.86
22753;BME280;11543;43.144;24.684;2022-08-19T02:04:50;98389.28;;;25.00;47.86
22753;BME280;11543;43.144;24.684;2022-08-19T02:07:19;98389.72;;;24.92;47.69
22753;BME280;11543;43.144;24.684;2022-08-19T02:09:46;98377.50;;;24.77;48.51
22753;BME280;11543;43.144;24.684;2022-08-19T02:12:13;98384.97;;;24.82;48.37
22753;BME280;11543;43.144;24.684;2022-08-19T02:14:39;98365.38;;;24.73;48.15
22753;BME280;11543;43.144;24.684;2022-08-19T02:17:05;98373.03;;;24.71;47.97
22753;BME280;11543;43.144;24.684;2022-08-19T02:19:30;98381.31;;;24.50;48.86
22753;BME280;11543;43.144;24.684;2022-08-19T02:21:58;98369.56;;;24.15;49.50
22753;BME280;11543;43.144;24.684;2022-08-19T02:24:24;98382.38;;;24.10;49.99
22753;BME280;11543;43.144;24.684;2022-08-19T02:26:49;98389.06;;;23.97;50.23
22753;BME280;11543;43.144;24.684;2022-08-19T02:29:16;98383.28;;;23.77;50.49
22753;BME280;11543;43.144;24.684;2022-08-19T02:31:42;98389.94;;;23.64;51.06
22753;BME280;11543;43.144;24.684;2022-08-19T02:34:07;98397.91;;;23.66;51.48
22753;BME280;11543;43.144;24.684;2022-08-19T02:36:33;98391.44;;;23.72;51.15
22753;BME280;11543;43.144;24.684;2022-08-19T02:38:59;98388.78;;;23.77;50.93
22753;BME280;11543;43.144;24.684;2022-08-19T02:41:28;98375.16;;;23.82;50.33
22753;BME280;11543;43.144;24.684;2022-08-19T02:43:55;98392.38;;;23.99;50.21
22753;BME280;11543;43.144;24.684;2022-08-19T02:46:24;98401.81;;;24.08;50.08
22753;BME280;11543;43.144;24.684;2022-08-19T02:48:51;98391.03;;;24.02;50.32
22753;BME280;11543;43.144;24.684;2022-08-19T02:51:19;98390.22;;;24.01;50.20
22753;BME280;11543;43.144;24.684;2022-08-19T02:53:46;98405.00;;;24.00;50.57
22753;BME280;11543;43.144;24.684;2022-08-19T02:56:11;98392.81;;;23.91;50.73
22753;BME280;11543;43.144;24.684;2022-08-19T02:58:37;98385.03;;;23.83;50.86
22753;BME280;11543;43.144;24.684;2022-08-19T03:01:03;98402.69;;;23.92;50.76
22753;BME280;11543;43.144;24.684;2022-08-19T03:03:28;98390.56;;;23.88;50.62
22753;BME280;11543;43.144;24.684;2022-08-19T03:06:09;98398.38;;;23.96;50.68
22753;BME280;11543;43.144;24.684;2022-08-19T03:08:36;98405.69;;;23.91;51.06
22753;BME280;11543;43.144;24.684;2022-08-19T03:11:02;98414.59;;;23.64;51.65
22753;BME280;11543;43.144;24.684;2022-08-19T03:13:28;98412.41;;;23.49;52.11
22753;BME280;11543;43.144;24.684;2022-08-19T03:15:54;98403.63;;;23.47;52.04
22753;BME280;11543;43.144;24.684;2022-08-19T03:18:19;98398.19;;;23.36;52.39
22753;BME280;11543;43.144;24.684;2022-08-19T03:20:48;98418.09;;;23.31;52.90
22753;BME280;11543;43.144;24.684;2022-08-19T03:23:16;98420.84;;;23.31;52.98
22753;BME280;11543;43.144;24.684;2022-08-19T03:25:45;98442.16;;;23.29;52.92
22753;BME280;11543;43.144;24.684;2022-08-19T03:28:12;98428.19;;;23.14;53.24
22753;BME280;11543;43.144;24.684;2022-08-19T03:30:39;98409.44;;;23.06;53.40
22753;BME280;11543;43.144;24.684;2022-08-19T03:33:06;98426.63;;;23.18;53.54
22753;BME280;11543;43.144;24.684;2022-08-19T03:35:32;98420.41;;;23.23;53.13
22753;BME280;11543;43.144;24.684;2022-08-19T03:38:00;98416.94;;;23.27;52.84
22753;BME280;11543;43.144;24.684;2022-08-19T03:40:26;98424.75;;;23.35;52.51
22753;BME280;11543;43.144;24.684;2022-08-19T03:42:51;98420.34;;;23.34;52.66
22753;BME280;11543;43.144;24.684;2022-08-19T03:45:17;98446.84;;;23.45;52.41
22753;BME280;11543;43.144;24.684;2022-08-19T03:47:42;98436.63;;;23.41;52.49
22753;BME280;11543;43.144;24.684;2022-08-19T03:50:08;98447.44;;;23.47;52.53
22753;BME280;11543;43.144;24.684;2022-08-19T03:52:34;98442.19;;;23.46;52.17
22753;BME280;11543;43.144;24.684;2022-08-19T03:55:01;98445.84;;;23.51;52.33
22753;BME280;11543;43.144;24.684;2022-08-19T03:57:27;98450.75;;;23.49;52.10
22753;BME280;11543;43.144;24.684;2022-08-19T03:59:52;98448.47;;;23.58;52.13
22753;BME280;11543;43.144;24.684;2022-08-19T04:02:18;98427.69;;;23.45;52.09
22753;BME280;11543;43.144;24.684;2022-08-19T04:04:43;98432.28;;;23.57;52.13
22753;BME280;11543;43.144;24.684;2022-08-19T04:07:10;98450.03;;;23.71;52.25
22753;BME280;11543;43.144;24.684;2022-08-19T04:09:36;98433.09;;;23.57;52.23
22753;BME280;11543;43.144;24.684;2022-08-19T04:12:03;98446.38;;;23.65;52.24
22753;BME280;11543;43.144;24.684;2022-08-19T04:14:31;98463.16;;;23.69;52.63
22753;BME280;11543;43.144;24.684;2022-08-19T04:16:58;98454.34;;;23.67;52.87
22753;BME280;11543;43.144;24.684;2022-08-19T04:19:25;98467.97;;;23.62;52.86
22753;BME280;11543;43.144;24.684;2022-08-19T04:21:53;98471.91;;;23.54;53.13
22753;BME280;11543;43.144;24.684;2022-08-19T04:24:19;98482.09;;;23.42;53.56
22753;BME280;11543;43.144;24.684;2022-08-19T04:26:46;98470.09;;;23.31;53.93
22753;BME280;11543;43.144;24.684;2022-08-19T04:29:21;98453.59;;;23.26;53.71
22753;BME280;11543;43.144;24.684;2022-08-19T04:31:47;98465.88;;;23.40;53.50
22753;BME280;11543;43.144;24.684;2022-08-19T04:34:15;98474.44;;;23.56;53.60
22753;BME280;11543;43.144;24.684;2022-08-19T04:36:43;98458.97;;;23.49;53.17
22753;BME280;11543;43.144;24.684;2022-08-19T04:39:15;98477.75;;;23.58;53.63
22753;BME280;11543;43.144;24.684;2022-08-19T04:41:42;98464.31;;;23.56;53.47
22753;BME280;11543;43.144;24.684;2022-08-19T04:44:27;98466.09;;;23.50;53.67
22753;BME280;11543;43.144;24.684;2022-08-19T04:46:55;98479.41;;;23.59;53.90
22753;BME280;11543;43.144;24.684;2022-08-19T04:49:22;98474.56;;;23.49;53.83
22753;BME280;11543;43.144;24.684;2022-08-19T04:51:50;98461.94;;;23.48;54.44
22753;BME280;11543;43.144;24.684;2022-08-19T04:54:19;98466.00;;;23.45;54.51
22753;BME280;11543;43.144;24.684;2022-08-19T04:56:48;98486.78;;;23.58;54.32
22753;BME280;11543;43.144;24.684;2022-08-19T04:59:15;98450.31;;;23.41;54.50
22753;BME280;11543;43.144;24.684;2022-08-19T05:01:42;98478.72;;;23.51;54.24
22753;BME280;11543;43.144;24.684;2022-08-19T05:04:09;98489.78;;;23.57;54.78
22753;BME280;11543;43.144;24.684;2022-08-19T05:06:35;98463.59;;;23.49;54.49
22753;BME280;11543;43.144;24.684;2022-08-19T05:09:04;98484.47;;;23.67;54.32
22753;BME280;11543;43.144;24.684;2022-08-19T05:11:32;98465.47;;;23.60;54.18
22753;BME280;11543;43.144;24.684;2022-08-19T05:13:58;98475.25;;;23.73;54.27
22753;BME280;11543;43.144;24.684;2022-08-19T05:16:25;98480.75;;;23.90;53.83
22753;BME280;11543;43.144;24.684;2022-08-19T05:18:51;98480.66;;;24.01;53.42
22753;BME280;11543;43.144;24.684;2022-08-19T05:21:35;98476.91;;;24.07;53.48
22753;BME280;11543;43.144;24.684;2022-08-19T05:24:21;98484.84;;;24.26;53.07
22753;BME280;11543;43.144;24.684;2022-08-19T05:26:48;98474.72;;;24.26;53.17
22753;BME280;11543;43.144;24.684;2022-08-19T05:29:16;98483.53;;;24.45;53.05
22753;BME280;11543;43.144;24.684;2022-08-19T05:31:43;98467.59;;;24.42;52.59
22753;BME280;11543;43.144;24.684;2022-08-19T05:34:08;98473.34;;;24.62;52.03
22753;BME280;11543;43.144;24.684;2022-08-19T05:36:37;98481.19;;;24.75;51.83
22753;BME280;11543;43.144;24.684;2022-08-19T05:39:06;98469.75;;;24.84;51.73
22753;BME280;11543;43.144;24.684;2022-08-19T05:41:32;98481.78;;;24.99;51.48
22753;BME280;11543;43.144;24.684;2022-08-19T05:44:00;98477.16;;;25.05;51.38
22753;BME280;11543;43.144;24.684;2022-08-19T05:46:26;98470.13;;;25.14;51.06
22753;BME280;11543;43.144;24.684;2022-08-19T05:48:52;98461.97;;;25.19;50.54
22753;BME280;11543;43.144;24.684;2022-08-19T05:51:17;98461.25;;;25.29;50.49
22753;BME280;11543;43.144;24.684;2022-08-19T05:53:43;98464.34;;;25.37;50.44
22753;BME280;11543;43.144;24.684;2022-08-19T05:56:12;98464.97;;;25.45;50.82
22753;BME280;11543;43.144;24.684;2022-08-19T05:58:39;98460.09;;;25.52;50.46
22753;BME280;11543;43.144;24.684;2022-08-19T06:01:13;98467.34;;;25.63;50.31
22753;BME280;11543;43.144;24.684;2022-08-19T06:03:40;98464.44;;;25.75;50.50
22753;BME280;11543;43.144;24.684;2022-08-19T06:06:10;98457.88;;;25.81;50.21
22753;BME280;11543;43.144;24.684;2022-08-19T06:08:37;98466.81;;;25.98;50.51
22753;BME280;11543;43.144;24.684;2022-08-19T06:13:42;98473.38;;;26.29;49.97
22753;BME280;11543;43.144;24.684;2022-08-19T06:16:08;98474.03;;;26.41;49.39
22753;BME280;11543;43.144;24.684;2022-08-19T06:18:34;98459.75;;;26.49;48.89
22753;BME280;11543;43.144;24.684;2022-08-19T06:20:59;98458.19;;;26.69;48.85
22753;BME280;11543;43.144;24.684;2022-08-19T06:23:30;98478.19;;;27.01;48.14
22753;BME280;11543;43.144;24.684;2022-08-19T06:25:56;98477.13;;;27.17;47.42
22753;BME280;11543;43.144;24.684;2022-08-19T06:28:21;98462.84;;;27.25;47.32
22753;BME280;11543;43.144;24.684;2022-08-19T06:30:49;98476.63;;;27.41;46.97
22753;BME280;11543;43.144;24.684;2022-08-19T06:33:15;98445.78;;;27.39;46.72
22753;BME280;11543;43.144;24.684;2022-08-19T06:35:41;98466.44;;;27.56;46.15
22753;BME280;11543;43.144;24.684;2022-08-19T06:38:07;98444.69;;;27.55;45.95
22753;BME280;11543;43.144;24.684;2022-08-19T06:40:35;98469.78;;;27.74;46.15
22753;BME280;11543;43.144;24.684;2022-08-19T06:43:00;98451.91;;;27.76;45.62
22753;BME280;11543;43.144;24.684;2022-08-19T06:45:27;98470.66;;;27.95;45.08
22753;BME280;11543;43.144;24.684;2022-08-19T06:47:53;98451.34;;;27.95;44.72
22753;BME280;11543;43.144;24.684;2022-08-19T06:50:24;98461.25;;;28.16;44.11
22753;BME280;11543;43.144;24.684;2022-08-19T06:52:50;98453.78;;;28.16;44.13
22753;BME280;11543;43.144;24.684;2022-08-19T06:55:16;98465.38;;;28.34;44.08
22753;BME280;11543;43.144;24.684;2022-08-19T06:57:42;98453.78;;;28.37;44.20
22753;BME280;11543;43.144;24.684;2022-08-19T07:00:09;98465.59;;;28.52;44.17
22753;BME280;11543;43.144;24.684;2022-08-19T07:02:42;98447.91;;;28.53;43.92
22753;BME280;11543;43.144;24.684;2022-08-19T07:05:08;98465.53;;;28.73;43.70
22753;BME280;11543;43.144;24.684;2022-08-19T07:07:33;98443.47;;;28.73;43.58
22753;BME280;11543;43.144;24.684;2022-08-19T07:10:00;98450.31;;;28.91;43.90
22753;BME280;11543;43.144;24.684;2022-08-19T07:12:29;98461.22;;;29.16;43.22
22753;BME280;11543;43.144;24.684;2022-08-19T07:14:58;98464.50;;;29.23;43.30
22753;BME280;11543;43.144;24.684;2022-08-19T07:17:25;98444.31;;;29.23;42.93
22753;BME280;11543;43.144;24.684;2022-08-19T07:19:51;98454.69;;;29.41;42.48
22753;BME280;11543;43.144;24.684;2022-08-19T07:22:16;98449.72;;;29.48;42.89
22753;BME280;11543;43.144;24.684;2022-08-19T07:24:43;98457.09;;;29.63;42.47
22753;BME280;11543;43.144;24.684;2022-08-19T07:27:08;98447.97;;;29.62;42.70
22753;BME280;11543;43.144;24.684;2022-08-19T07:29:36;98463.25;;;29.84;42.80
22753;BME280;11543;43.144;24.684;2022-08-19T07:32:03;98469.19;;;30.01;42.44
22753;BME280;11543;43.144;24.684;2022-08-19T07:34:30;98449.81;;;30.06;41.93
22753;BME280;11543;43.144;24.684;2022-08-19T07:36:56;98465.63;;;30.29;41.68
22753;BME280;11543;43.144;24.684;2022-08-19T07:39:27;98457.78;;;30.41;41.76
22753;BME280;11543;43.144;24.684;2022-08-19T07:41:54;98461.16;;;30.62;41.13
22753;BME280;11543;43.144;24.684;2022-08-19T07:44:20;98459.09;;;30.73;41.19
22753;BME280;11543;43.144;24.684;2022-08-19T07:46:49;98431.41;;;30.73;40.59
22753;BME280;11543;43.144;24.684;2022-08-19T07:49:15;98438.31;;;30.94;40.44
22753;BME280;11543;43.144;24.684;2022-08-19T07:51:59;98448.34;;;31.09;39.83
22753;BME280;11543;43.144;24.684;2022-08-19T07:54:28;98447.00;;;31.30;39.66
22753;BME280;11543;43.144;24.684;2022-08-19T07:56:55;98441.75;;;31.48;39.09
22753;BME280;11543;43.144;24.684;2022-08-19T07:59:24;98451.63;;;31.73;38.47
22753;BME280;11543;43.144;24.684;2022-08-19T08:01:50;98455.81;;;31.89;38.55
22753;BME280;11543;43.144;24.684;2022-08-19T08:04:17;98443.41;;;32.00;37.54
22753;BME280;11543;43.144;24.684;2022-08-19T08:07:03;98444.13;;;32.24;37.56
22753;BME280;11543;43.144;24.684;2022-08-19T08:09:47;98453.81;;;32.41;37.65
22753;BME280;11543;43.144;24.684;2022-08-19T08:12:23;98448.34;;;32.63;37.03
22753;BME280;11543;43.144;24.684;2022-08-19T08:14:52;98436.31;;;32.68;36.73
22753;BME280;11543;43.144;24.684;2022-08-19T08:17:20;98442.50;;;32.92;36.11
22753;BME280;11543;43.144;24.684;2022-08-19T08:19:47;98448.44;;;33.13;35.48
22753;BME280;11543;43.144;24.684;2022-08-19T08:22:15;98439.75;;;33.28;35.11
22753;BME280;11543;43.144;24.684;2022-08-19T08:25:06;98445.06;;;33.52;34.22
22753;BME280;11543;43.144;24.684;2022-08-19T08:27:38;98433.50;;;33.59;33.62
22753;BME280;11543;43.144;24.684;2022-08-19T08:30:09;98432.75;;;33.67;33.89
22753;BME280;11543;43.144;24.684;2022-08-19T08:32:39;98436.06;;;33.91;34.00
22753;BME280;11543;43.144;24.684;2022-08-19T08:35:06;98429.78;;;34.08;33.42
22753;BME280;11543;43.144;24.684;2022-08-19T08:37:32;98437.28;;;34.30;32.73
22753;BME280;11543;43.144;24.684;2022-08-19T08:39:58;98431.13;;;34.41;32.33
22753;BME280;11543;43.144;24.684;2022-08-19T08:42:31;98419.03;;;34.46;31.80
22753;BME280;11543;43.144;24.684;2022-08-19T08:45:12;98436.34;;;34.74;31.80
22753;BME280;11543;43.144;24.684;2022-08-19T08:47:41;98425.38;;;34.77;31.56
22753;BME280;11543;43.144;24.684;2022-08-19T08:50:28;98417.50;;;34.79;31.91
22753;BME280;11543;43.144;24.684;2022-08-19T08:52:58;98433.00;;;35.03;31.34
22753;BME280;11543;43.144;24.684;2022-08-19T08:55:27;98434.50;;;35.18;31.17
22753;BME280;11543;43.144;24.684;2022-08-19T08:58:04;98432.06;;;35.33;31.19
22753;BME280;11543;43.144;24.684;2022-08-19T09:00:33;98427.81;;;35.44;30.62
22753;BME280;11543;43.144;24.684;2022-08-19T09:03:16;98421.06;;;35.54;29.81
22753;BME280;11543;43.144;24.684;2022-08-19T09:06:04;98417.00;;;35.69;30.09
22753;BME280;11543;43.144;24.684;2022-08-19T09:09:11;98413.84;;;35.96;29.92
22753;BME280;11543;43.144;24.684;2022-08-19T09:16:42;98398.16;;;36.30;28.82
22753;BME280;11543;43.144;24.684;2022-08-19T09:19:08;98402.72;;;36.43;28.40
22753;BME280;11543;43.144;24.684;2022-08-19T09:21:34;98412.56;;;36.49;28.34
22753;BME280;11543;43.144;24.684;2022-08-19T09:24:03;98407.41;;;36.60;28.46
22753;BME280;11543;43.144;24.684;2022-08-19T09:26:30;98407.34;;;36.68;28.91
22753;BME280;11543;43.144;24.684;2022-08-19T09:28:58;98397.94;;;36.82;28.77
22753;BME280;11543;43.144;24.684;2022-08-19T09:31:27;98413.94;;;37.02;27.78
22753;BME280;11543;43.144;24.684;2022-08-19T09:33:54;98404.25;;;37.20;28.27
22753;BME280;11543;43.144;24.684;2022-08-19T09:36:23;98394.03;;;37.24;27.59
22753;BME280;11543;43.144;24.684;2022-08-19T09:38:51;98395.81;;;37.50;27.78
22753;BME280;11543;43.144;24.684;2022-08-19T09:41:20;98383.47;;;37.72;27.56
22753;BME280;11543;43.144;24.684;2022-08-19T09:43:50;98399.50;;;37.96;27.05
22753;BME280;11543;43.144;24.684;2022-08-19T09:46:21;98400.78;;;38.19;26.32
22753;BME280;11543;43.144;24.684;2022-08-19T09:48:49;98389.59;;;38.31;26.38
22753;BME280;11543;43.144;24.684;2022-08-19T09:51:26;98385.03;;;38.51;26.70
22753;BME280;11543;43.144;24.684;2022-08-19T09:53:52;98372.41;;;38.57;26.28
22753;BME280;11543;43.144;24.684;2022-08-19T09:56:22;98377.69;;;38.71;26.27
22753;BME280;11543;43.144;24.684;2022-08-19T09:58:50;98369.28;;;38.83;25.91
22753;BME280;11543;43.144;24.684;2022-08-19T10:01:18;98365.72;;;38.98;25.70
22753;BME280;11543;43.144;24.684;2022-08-19T10:03:47;98371.13;;;39.15;25.57
22753;BME280;11543;43.144;24.684;2022-08-19T10:06:13;98363.75;;;39.23;25.12
22753;BME280;11543;43.144;24.684;2022-08-19T10:08:41;98353.19;;;39.32;24.51
22753;BME280;11543;43.144;24.684;2022-08-19T10:11:08;98358.19;;;39.39;24.14
22753;BME280;11543;43.144;24.684;2022-08-19T10:13:34;98361.91;;;39.43;24.04
22753;BME280;11543;43.144;24.684;2022-08-19T10:16:21;98359.81;;;39.40;24.26
22753;BME280;11543;43.144;24.684;2022-08-19T10:18:48;98364.31;;;39.29;23.95
22753;BME280;11543;43.144;24.684;2022-08-19T10:21:21;98356.84;;;39.21;24.76
22753;BME280;11543;43.144;24.684;2022-08-19T10:23:50;98354.25;;;39.28;24.36
22753;BME280;11543;43.144;24.684;2022-08-19T10:26:21;98362.16;;;39.38;24.54
22753;BME280;11543;43.144;24.684;2022-08-19T10:28:47;98368.94;;;39.49;25.08
22753;BME280;11543;43.144;24.684;2022-08-19T10:31:16;98356.81;;;39.61;24.72
22753;BME280;11543;43.144;24.684;2022-08-19T10:33:46;98347.25;;;39.77;24.81
22753;BME280;11543;43.144;24.684;2022-08-19T10:36:19;98360.03;;;40.03;24.02
22753;BME280;11543;43.144;24.684;2022-08-19T10:38:46;98360.84;;;40.19;23.99
22753;BME280;11543;43.144;24.684;2022-08-19T10:41:20;98357.59;;;40.33;23.47
22753;BME280;11543;43.144;24.684;2022-08-19T10:43:50;98330.56;;;40.28;23.36
22753;BME280;11543;43.144;24.684;2022-08-19T10:46:18;98344.91;;;40.39;23.29
22753;BME280;11543;43.144;24.684;2022-08-19T10:48:44;98347.72;;;40.39;23.31
22753;BME280;11543;43.144;24.684;2022-08-19T10:51:11;98337.75;;;40.41;23.56
22753;BME280;11543;43.144;24.684;2022-08-19T10:53:56;98325.31;;;40.42;23.57
22753;BME280;11543;43.144;24.684;2022-08-19T10:56:22;98326.03;;;40.55;23.29
22753;BME280;11543;43.144;24.684;2022-08-19T10:59:14;98334.41;;;40.71;23.60
22753;BME280;11543;43.144;24.684;2022-08-19T11:01:42;98334.00;;;40.85;23.26
22753;BME280;11543;43.144;24.684;2022-08-19T11:04:08;98328.16;;;40.93;22.63
22753;BME280;11543;43.144;24.684;2022-08-19T11:06:39;98328.59;;;40.95;22.62
22753;BME280;11543;43.144;24.684;2022-08-19T11:09:06;98320.00;;;40.88;22.92
22753;BME280;11543;43.144;24.684;2022-08-19T11:11:33;98340.59;;;40.92;22.94
22753;BME280;11543;43.144;24.684;2022-08-19T11:14:00;98320.53;;;40.94;22.80
22753;BME280;11543;43.144;24.684;2022-08-19T11:16:26;98328.16;;;40.93;22.89
22753;BME280;11543;43.144;24.684;2022-08-19T11:18:56;98324.06;;;40.75;22.99
22753;BME280;11543;43.144;24.684;2022-08-19T11:21:29;98321.28;;;40.59;23.21
22753;BME280;11543;43.144;24.684;2022-08-19T11:24:05;98327.56;;;40.53;22.97
22753;BME280;11543;43.144;24.684;2022-08-19T11:26:32;98321.94;;;40.53;23.04
22753;BME280;11543;43.144;24.684;2022-08-19T11:29:00;98312.16;;;40.47;23.39
22753;BME280;11543;43.144;24.684;2022-08-19T11:31:29;98312.81;;;40.40;22.92
22753;BME280;11543;43.144;24.684;2022-08-19T11:34:07;98314.34;;;40.37;23.27
22753;BME280;11543;43.144;24.684;2022-08-19T11:36:34;98312.72;;;40.36;23.50
22753;BME280;11543;43.144;24.684;2022-08-19T11:39:05;98317.69;;;40.43;23.03
22753;BME280;11543;43.144;24.684;2022-08-19T11:41:31;98311.53;;;40.37;23.12
22753;BME280;11543;43.144;24.684;2022-08-19T11:43:59;98302.38;;;40.40;23.12
22753;BME280;11543;43.144;24.684;2022-08-19T11:46:27;98291.13;;;40.40;22.94
22753;BME280;11543;43.144;24.684;2022-08-19T11:48:59;98279.88;;;40.40;23.27
22753;BME280;11543;43.144;24.684;2022-08-19T11:51:27;98294.41;;;40.78;23.42
22753;BME280;11543;43.144;24.684;2022-08-19T11:53:54;98287.56;;;40.94;22.68
22753;BME280;11543;43.144;24.684;2022-08-19T11:56:21;98297.66;;;41.15;22.37
22753;BME280;11543;43.144;24.684;2022-08-19T11:58:48;98289.53;;;41.29;22.15
22753;BME280;11543;43.144;24.684;2022-08-19T12:01:17;98292.00;;;41.53;21.83
22753;BME280;11543;43.144;24.684;2022-08-19T12:03:48;98276.06;;;41.61;22.23
22753;BME280;11543;43.144;24.684;2022-08-19T12:06:19;98274.56;;;41.63;21.89
22753;BME280;11543;43.144;24.684;2022-08-19T12:08:51;98286.06;;;41.78;22.05
22753;BME280;11543;43.144;24.684;2022-08-19T12:11:18;98288.44;;;41.76;21.90
22753;BME280;11543;43.144;24.684;2022-08-19T12:13:43;98288.88;;;41.78;21.97
22753;BME280;11543;43.144;24.684;2022-08-19T12:16:22;98274.81;;;41.78;22.40
22753;BME280;11543;43.144;24.684;2022-08-19T12:18:49;98273.41;;;41.91;21.79
22753;BME280;11543;43.144;24.684;2022-08-19T12:21:17;98262.31;;;42.02;21.23
22753;BME280;11543;43.144;24.684;2022-08-19T12:23:48;98263.41;;;42.16;21.39
22753;BME280;11543;43.144;24.684;2022-08-19T12:26:15;98254.19;;;42.19;21.45
22753;BME280;11543;43.144;24.684;2022-08-19T12:28:41;98247.94;;;42.33;21.56
22753;BME280;11543;43.144;24.684;2022-08-19T12:31:29;98257.47;;;42.48;21.44
22753;BME280;11543;43.144;24.684;2022-08-19T12:33:57;98246.69;;;42.30;21.33
22753;BME280;11543;43.144;24.684;2022-08-19T12:36:27;98236.28;;;42.35;22.15
22753;BME280;11543;43.144;24.684;2022-08-19T12:39:06;98219.81;;;42.37;21.61
22753;BME280;11543;43.144;24.684;2022-08-19T12:41:52;98239.03;;;42.54;20.96
22753;BME280;11543;43.144;24.684;2022-08-19T12:44:18;98239.91;;;42.58;21.41
22753;BME280;11543;43.144;24.684;2022-08-19T12:46:47;98219.72;;;42.56;21.37
22753;BME280;11543;43.144;24.684;2022-08-19T12:49:14;98228.47;;;42.77;21.03
22753;BME280;11543;43.144;24.684;2022-08-19T12:51:40;98220.91;;;42.85;21.61
22753;BME280;11543;43.144;24.684;2022-08-19T12:54:06;98257.56;;;43.11;21.10
22753;BME280;11543;43.144;24.684;2022-08-19T12:56:32;98232.19;;;43.15;20.48
22753;BME280;11543;43.144;24.684;2022-08-19T12:59:01;98245.72;;;43.32;20.24
22753;BME280;11543;43.144;24.684;2022-08-19T13:01:36;98247.31;;;43.30;20.23
22753;BME280;11543;43.144;24.684;2022-08-19T13:04:03;98215.31;;;43.22;21.05
22753;BME280;11543;43.144;24.684;2022-08-19T13:06:30;98222.66;;;43.27;20.25
22753;BME280;11543;43.144;24.684;2022-08-19T13:08:58;98239.41;;;43.42;19.90